Time;durP1;ratioP1;P1;durP2;ratioP2;P2;SDS_P1;SDS_P2;PMS_P1;PMS_P2;Temp;Humidity;BMP_temperature;BMP_pressure;BME280_temperature;BME280_humidity;BME280_pressure;Samples;Min_cycle;Max_cycle;Signal;HPM_P1;HPM_P2
2023/01/01 00:00:00;;;;;;;1.45;1.35;;;;;;;12.18;69.06;97174.44;29395;248;63005;-57
2023/01/01 00:00:32;;;;;;;1.98;1.87;;;;;;;12.20;68.87;97172.22;29394;220;64013;-61
2023/01/01 00:01:08;;;;;;;7.20;6.93;;;;;;;12.20;68.94;97170.31;29395;227;63005;-58
2023/01/01 00:01:42;;;;;;;0.50;0.50;;;;;;;12.17;68.78;97179.06;29395;229;63009;-57
2023/01/01 00:02:14;;;;;;;4.85;4.68;;;;;;;12.18;69.03;97174.44;29395;227;63005;-57
2023/01/01 00:02:48;;;;;;;28.80;19.02;;;;;;;12.19;68.95;97181.50;29385;213;65009;-61
2023/01/01 00:03:21;;;;;;;3.12;2.70;;;;;;;12.21;68.75;97171.94;29395;222;63004;-62
2023/01/01 00:03:54;;;;;;;1.12;1.12;;;;;;;12.24;68.52;97173.25;29395;206;63009;-59
2023/01/01 00:04:27;;;;;;;10.85;4.10;;;;;;;12.26;68.54;97177.28;29391;244;64011;-56
2023/01/01 00:04:59;;;;;;;0.50;0.50;;;;;;;12.25;68.38;97180.31;29395;247;63009;-56
2023/01/01 00:05:31;;;;;;;1.05;1.05;;;;;;;12.21;68.57;97171.13;29395;223;63004;-56
2023/01/01 00:06:07;;;;;;;0.60;0.60;;;;;;;12.19;68.82;97176.84;29394;235;64013;-57
2023/01/01 00:06:41;;;;;;;3.25;3.10;;;;;;;12.18;69.13;97186.13;29395;265;63005;-56
2023/01/01 00:07:12;;;;;;;0.57;0.57;;;;;;;12.18;68.96;97180.69;29395;213;63009;-57
2023/01/01 00:07:45;;;;;;;1.62;1.62;;;;;;;12.16;69.33;97177.44;29394;203;64009;-57
2023/01/01 00:08:17;;;;;;;3.92;3.72;;;;;;;12.15;69.18;97180.47;29395;216;63009;-56
2023/01/01 00:10:26;;;;;;;0.50;0.50;;;;;;;12.13;69.27;97177.25;29395;216;63005;-56
2023/01/01 00:10:29;;;;;;;0.50;0.50;;;;;;;12.08;69.54;97178.94;29395;375;63004;-56
2023/01/01 00:11:02;;;;;;;7.80;7.37;;;;;;;12.07;69.52;97184.69;29395;218;63009;-56
2023/01/01 00:11:33;;;;;;;1.17;1.17;;;;;;;12.11;69.52;97184.91;29395;268;63004;-58
2023/01/01 00:12:06;;;;;;;1.05;1.05;;;;;;;12.14;69.44;97189.72;29394;210;64013;-56
2023/01/01 00:12:38;;;;;;;0.65;0.65;;;;;;;12.17;68.93;97184.50;29394;206;64009;-56
2023/01/01 00:13:12;;;;;;;0.50;0.50;;;;;;;12.18;68.66;97185.31;29395;217;63008;-56
2023/01/01 00:13:44;;;;;;;0.50;0.50;;;;;;;12.18;68.92;97185.31;29395;258;63005;-57
2023/01/01 00:14:15;;;;;;;0.50;0.50;;;;;;;12.21;68.74;97192.88;29395;282;63009;-56
2023/01/01 00:14:46;;;;;;;1.12;1.12;;;;;;;12.20;68.81;97194.78;29395;218;63005;-56
2023/01/01 00:15:18;;;;;;;0.50;0.50;;;;;;;12.17;68.90;97191.84;29394;214;64014;-56
2023/01/01 00:15:50;;;;;;;0.85;0.85;;;;;;;12.16;68.67;97198.41;29394;219;64009;-63
2023/01/01 00:16:21;;;;;;;0.40;0.40;;;;;;;12.16;68.89;97190.25;29395;204;63009;-57
2023/01/01 00:16:56;;;;;;;0.40;0.40;;;;;;;12.15;68.96;97191.34;29395;228;63005;-56
2023/01/01 00:17:28;;;;;;;4.55;4.22;;;;;;;12.15;68.88;97188.63;29395;223;63009;-56
2023/01/01 00:18:00;;;;;;;0.60;0.60;;;;;;;12.22;68.84;97197.22;29394;243;64009;-57
2023/01/01 00:18:31;;;;;;;7.32;5.35;;;;;;;12.24;68.54;97195.00;29395;212;63009;-58
2023/01/01 00:19:03;;;;;;;0.50;0.50;;;;;;;12.24;68.70;97195.00;29395;206;63008;-58
2023/01/01 00:19:34;;;;;;;0.50;0.50;;;;;;;12.21;68.68;97195.59;29395;244;63009;-56
2023/01/01 00:20:07;;;;;;;0.40;0.40;;;;;;;12.19;68.94;97192.38;29395;215;63004;-56
2023/01/01 00:20:38;;;;;;;0.50;0.50;;;;;;;12.18;68.84;97196.19;29395;226;63008;-56
2023/01/01 00:21:13;;;;;;;0.47;0.47;;;;;;;12.19;69.14;97197.81;29395;244;63004;-62
2023/01/01 00:21:45;;;;;;;0.50;0.50;;;;;;;12.18;68.87;97194.28;29395;198;63009;-67
2023/01/01 00:22:17;;;;;;;0.50;0.50;;;;;;;12.15;69.22;97200.31;29395;203;63005;-56
2023/01/01 00:22:48;;;;;;;0.60;0.60;;;;;;;12.14;69.18;97195.16;29395;214;63023;-57
2023/01/01 00:23:20;;;;;;;0.50;0.50;;;;;;;12.12;68.96;97194.69;29394;262;64009;-56
2023/01/01 00:23:52;;;;;;;0.50;0.50;;;;;;;12.10;69.14;97194.97;29395;210;63009;-56
2023/01/01 00:24:26;;;;;;;0.50;0.50;;;;;;;12.14;69.18;97195.16;29395;199;63005;-56
2023/01/01 00:24:58;;;;;;;0.50;0.50;;;;;;;12.15;68.87;97184.00;29395;202;63009;-56
2023/01/01 00:25:31;;;;;;;0.57;0.57;;;;;;;12.16;69.13;97187.53;29395;203;63004;-57
2023/01/01 00:26:15;;;;;;;0.50;0.50;;;;;;;12.15;69.26;97186.72;29394;200;64013;-57
2023/01/01 00:26:47;;;;;;;15.70;11.57;;;;;;;12.14;69.22;97187.81;29385;231;65014;-57
2023/01/01 00:27:18;;;;;;;33.97;18.83;;;;;;;12.15;69.06;97186.72;29384;218;66013;-56
2023/01/01 00:27:50;;;;;;;0.75;0.75;;;;;;;12.23;68.70;97185.25;29395;200;63004;-57
2023/01/01 00:28:22;;;;;;;0.50;0.50;;;;;;;12.21;68.92;97185.53;29395;198;63008;-57
2023/01/01 00:28:53;;;;;;;0.60;0.60;;;;;;;12.24;68.48;97181.41;29395;223;63005;-56
2023/01/01 00:29:26;;;;;;;0.70;0.70;;;;;;;12.26;68.52;97181.94;29395;242;63009;-56
2023/01/01 00:29:57;;;;;;;0.52;0.52;;;;;;;12.33;68.26;97182.38;29395;214;63005;-58
2023/01/01 00:30:30;;;;;;;0.50;0.50;;;;;;;12.38;67.71;97182.28;29395;218;63009;-56
2023/01/01 00:31:09;;;;;;;0.50;0.50;;;;;;;12.31;68.29;97179.13;29395;205;63005;-57
2023/01/01 00:31:40;;;;;;;1.05;1.00;;;;;;;12.28;68.39;97174.28;29394;217;64013;-57
2023/01/01 00:32:12;;;;;;;0.50;0.50;;;;;;;12.26;68.58;97181.94;29395;231;63005;-63
2023/01/01 00:32:44;;;;;;;0.80;0.80;;;;;;;12.22;68.72;97184.44;29395;294;63009;-57
2023/01/01 00:33:21;;;;;;;0.50;0.50;;;;;;;12.21;68.76;97179.28;29394;197;64009;-57
2023/01/01 00:33:54;;;;;;;0.50;0.50;;;;;;;12.17;68.86;97179.06;29395;261;63009;-57
2023/01/01 00:34:25;;;;;;;0.50;0.50;;;;;;;12.14;69.10;97187.00;29395;232;63004;-56
2023/01/01 00:34:56;;;;;;;0.50;0.50;;;;;;;12.11;69.26;97184.91;29395;252;63009;-57
2023/01/01 00:35:32;;;;;;;0.47;0.47;;;;;;;12.10;69.57;97186.00;29395;205;63004;-57
2023/01/01 00:36:12;;;;;;;0.50;0.50;;;;;;;12.11;69.40;97179.47;29395;244;63008;-56
2023/01/01 00:36:44;;;;;;;0.50;0.50;;;;;;;12.11;69.27;97171.31;29439;232;63005;-57
2023/01/01 00:37:17;;;;;;;4.55;4.35;;;;;;;12.15;69.00;97184.00;29371;203;64014;-56
2023/01/01 00:37:48;;;;;;;0.50;0.50;;;;;;;12.17;68.81;97179.06;29394;230;64009;-57
2023/01/01 00:38:19;;;;;;;0.50;0.50;;;;;;;12.16;68.88;97182.06;29394;262;64013;-58
2023/01/01 00:38:52;;;;;;;0.50;0.50;;;;;;;12.12;69.24;97181.87;29395;278;63005;-64
2023/01/01 00:39:23;;;;;;;0.70;0.70;;;;;;;12.06;69.25;97183.88;29395;205;63009;-56
2023/01/01 00:39:55;;;;;;;0.50;0.50;;;;;;;12.05;69.32;97181.44;29395;231;63005;-56
2023/01/01 00:40:26;;;;;;;0.50;0.50;;;;;;;12.07;69.09;97179.25;29395;225;63009;-56
2023/01/01 00:40:57;;;;;;;0.50;0.50;;;;;;;12.10;68.93;97178.66;29395;271;63004;-63
2023/01/01 00:41:29;;;;;;;0.50;0.50;;;;;;;12.11;69.01;97176.75;29395;264;63009;-58
2023/01/01 00:42:00;;;;;;;0.50;0.50;;;;;;;12.13;69.10;97178.03;29395;239;63008;-56
2023/01/01 00:42:31;;;;;;;0.50;0.50;;;;;;;12.14;68.82;97181.56;29395;206;63009;-58
2023/01/01 00:43:04;;;;;;;0.50;0.50;;;;;;;12.13;68.84;97182.69;29394;215;64004;-57
2023/01/01 00:43:35;;;;;;;0.50;0.50;;;;;;;12.12;69.05;97175.63;29395;217;63008;-57
2023/01/01 00:44:06;;;;;;;0.80;0.80;;;;;;;12.12;69.18;97181.87;29395;209;63010;-57
2023/01/01 00:44:38;;;;;;;0.50;0.50;;;;;;;12.12;68.87;97178.34;29395;219;63020;-56
2023/01/01 00:45:10;;;;;;;0.45;0.45;;;;;;;12.11;69.32;97179.47;29395;241;63005;-56
2023/01/01 00:45:46;;;;;;;0.50;0.50;;;;;;;12.08;69.29;97176.22;29395;259;63009;-58
2023/01/01 00:46:17;;;;;;;0.50;0.50;;;;;;;12.12;68.93;97175.63;29395;250;63005;-61
2023/01/01 00:46:49;;;;;;;0.50;0.50;;;;;;;12.12;68.84;97175.63;29395;212;63009;-57
2023/01/01 00:47:20;;;;;;;0.50;0.50;;;;;;;12.11;69.32;97174.03;29394;207;64005;-65
2023/01/01 00:47:53;;;;;;;0.50;0.50;;;;;;;12.08;69.04;97173.50;29395;246;63009;-57
2023/01/01 00:48:24;;;;;;;0.50;0.50;;;;;;;12.13;68.89;97179.97;29394;215;64009;-56
2023/01/01 00:48:56;;;;;;;0.50;0.50;;;;;;;12.15;68.79;97164.13;29395;225;63009;-56
2023/01/01 00:49:27;;;;;;;0.50;0.50;;;;;;;12.24;68.63;97173.25;29395;214;63004;-65
2023/01/01 00:49:58;;;;;;;0.50;0.50;;;;;;;12.29;68.43;97165.00;29395;218;63009;-57
2023/01/01 00:50:33;;;;;;;0.82;0.82;;;;;;;12.29;68.34;97171.25;29395;210;63004;-56
2023/01/01 00:51:05;;;;;;;0.50;0.50;;;;;;;12.30;68.09;97166.63;29395;381;63018;-56
2023/01/01 00:51:36;;;;;;;0.50;0.50;;;;;;;12.26;68.11;97166.41;29395;198;63005;-57
2023/01/01 00:52:07;;;;;;;0.50;0.50;;;;;;;12.23;68.29;97166.19;29395;228;63009;-56
2023/01/01 00:52:39;;;;;;;0.50;0.50;;;;;;;12.21;68.52;97168.41;29395;213;63014;-56
2023/01/01 00:53:10;;;;;;;0.57;0.57;;;;;;;12.18;68.62;97174.44;29395;219;63015;-56
2023/01/01 00:53:41;;;;;;;0.50;0.50;;;;;;;12.17;68.57;97170.09;29394;202;64009;-56
2023/01/01 00:54:13;;;;;;;1.98;1.98;;;;;;;12.15;68.89;97172.31;29395;249;63009;-56
2023/01/01 00:54:44;;;;;;;0.50;0.50;;;;;;;12.16;69.13;97171.19;29395;215;63005;-56
2023/01/01 00:55:16;;;;;;;0.50;0.50;;;;;;;12.17;68.79;97176.34;29395;223;63009;-56
2023/01/01 00:55:49;;;;;;;0.50;0.50;;;;;;;12.15;68.78;97170.38;29395;261;63004;-66
2023/01/01 00:56:21;;;;;;;0.80;0.80;;;;;;;12.15;68.62;97173.09;29395;205;63009;-64
2023/01/01 00:56:53;;;;;;;0.50;0.50;;;;;;;12.14;68.65;97168.78;29395;236;63004;-67
2023/01/01 00:57:24;;;;;;;0.50;0.50;;;;;;;12.12;69.11;97171.00;29395;218;63008;-66
2023/01/01 00:57:55;;;;;;;0.50;0.50;;;;;;;12.12;68.71;97175.63;29395;220;63007;-55
2023/01/01 00:58:27;;;;;;;0.50;0.50;;;;;;;12.11;68.92;97171.31;29395;216;63008;-56
2023/01/01 00:58:59;;;;;;;0.60;0.60;;;;;;;12.13;68.49;97177.25;29394;196;64008;-56
2023/01/01 00:59:30;;;;;;;0.50;0.50;;;;;;;12.14;68.67;97173.41;29395;199;63009;-56
2023/01/01 01:00:03;;;;;;;0.50;0.50;;;;;;;12.24;68.31;97167.81;29395;197;63005;-56
2023/01/01 01:00:35;;;;;;;0.50;0.50;;;;;;;12.26;67.99;97165.59;29395;217;63009;-56
2023/01/01 01:01:07;;;;;;;0.50;0.50;;;;;;;12.28;68.12;97164.22;29395;330;63005;-57
2023/01/01 01:01:39;;;;;;;0.85;0.85;;;;;;;12.35;67.80;97163.84;29395;266;63015;-57
2023/01/01 01:02:12;;;;;;;0.50;0.50;;;;;;;12.32;67.96;97164.41;29395;197;63005;-56
2023/01/01 01:02:43;;;;;;;0.50;0.50;;;;;;;12.30;67.89;97166.63;29395;197;63009;-57
2023/01/01 01:03:27;;;;;;;0.55;0.55;;;;;;;12.31;67.72;97162.81;29395;254;63004;-56
2023/01/01 01:04:00;;;;;;;0.50;0.50;;;;;;;12.37;67.45;97156.19;29394;229;64013;-57
2023/01/01 01:04:31;;;;;;;0.50;0.50;;;;;;;12.34;67.48;97163.03;29395;210;63004;-56
2023/01/01 01:05:03;;;;;;;0.50;0.50;;;;;;;12.29;67.54;97159.56;29395;215;63008;-56
2023/01/01 01:05:38;;;;;;;0.50;0.50;;;;;;;12.26;67.93;97165.59;29395;347;63004;-56
2023/01/01 01:06:14;;;;;;;0.50;0.50;;;;;;;12.22;68.07;97170.03;29395;218;63009;-56
2023/01/01 01:06:45;;;;;;;0.60;0.60;;;;;;;12.19;68.20;97160.53;29395;206;63005;-55
2023/01/01 01:07:17;;;;;;;0.50;0.50;;;;;;;12.16;68.16;97161.12;29395;213;63027;-56
2023/01/01 01:07:49;;;;;;;0.50;0.50;;;;;;;12.14;68.52;97151.66;29395;261;63005;-57
2023/01/01 01:08:21;;;;;;;0.50;0.50;;;;;;;12.16;68.23;97155.69;29395;236;63015;-56
2023/01/01 01:08:52;;;;;;;0.55;0.55;;;;;;;12.22;68.06;97157.22;29395;250;63005;-56
2023/01/01 01:09:24;;;;;;;0.50;0.50;;;;;;;12.22;68.09;97153.69;29394;236;64013;-57
2023/01/01 01:09:56;;;;;;;2.78;2.58;;;;;;;12.24;67.77;97151.50;29395;252;63004;-56
2023/01/01 01:10:27;;;;;;;0.50;0.50;;;;;;;12.23;68.13;97150.69;29395;254;63009;-56
2023/01/01 01:11:19;;;;;;;0.50;0.50;;;;;;;12.23;68.03;97156.13;29395;202;63004;-56
2023/01/01 01:11:50;;;;;;;0.50;0.50;;;;;;;12.26;67.84;97152.81;29395;240;63009;-55
2023/01/01 01:12:21;;;;;;;0.40;0.40;;;;;;;12.24;68.14;97165.09;29395;251;63004;-56
2023/01/01 01:12:54;;;;;;;0.50;0.50;;;;;;;12.28;67.80;97158.75;29394;198;64013;-57
2023/01/01 01:13:25;;;;;;;0.60;0.60;;;;;;;12.25;67.71;97150.37;29395;272;63005;-56
2023/01/01 01:13:56;;;;;;;0.40;0.40;;;;;;;12.22;67.84;97159.13;29395;220;63009;-56
2023/01/01 01:14:28;;;;;;;0.50;0.50;;;;;;;12.21;67.84;97157.53;29395;230;63005;-55
2023/01/01 01:14:59;;;;;;;0.50;0.50;;;;;;;12.20;68.23;97150.47;29395;227;63009;-56
2023/01/01 01:15:31;;;;;;;0.50;0.50;;;;;;;12.17;68.24;97156.50;29395;222;63005;-56
2023/01/01 01:16:16;;;;;;;0.50;0.50;;;;;;;12.10;68.56;97153.38;29395;228;63018;-56
2023/01/01 01:16:47;;;;;;;0.82;0.77;;;;;;;12.05;69.00;97157.78;29395;197;63005;-56
2023/01/01 01:17:19;;;;;;;0.50;0.50;;;;;;;12.03;68.85;97151.81;29394;216;64013;-56
2023/01/01 01:17:51;;;;;;;0.82;0.82;;;;;;;12.07;68.95;97155.56;29395;235;63004;-56
2023/01/01 01:18:23;;;;;;;0.50;0.50;;;;;;;12.04;68.84;97158.87;29395;240;63009;-56
2023/01/01 01:18:57;;;;;;;0.50;0.50;;;;;;;11.99;68.93;97156.22;29395;199;63004;-56
2023/01/01 01:19:28;;;;;;;0.50;0.50;;;;;;;11.96;69.29;97154.09;29394;255;64013;-55
2023/01/01 01:20:00;;;;;;;0.50;0.50;;;;;;;12.01;69.10;97154.03;29395;197;63004;-56
2023/01/01 01:20:31;;;;;;;0.50;0.50;;;;;;;12.04;68.86;97158.87;29395;246;63019;-55
2023/01/01 01:21:03;;;;;;;0.50;0.50;;;;;;;12.01;68.81;97154.03;29395;215;63005;-55
2023/01/01 01:21:35;;;;;;;0.60;0.60;;;;;;;11.99;69.13;97161.66;29394;224;64014;-55
2023/01/01 01:22:06;;;;;;;0.50;0.50;;;;;;;12.00;69.01;97162.47;29395;264;63005;-55
2023/01/01 01:22:38;;;;;;;0.80;0.80;;;;;;;12.00;69.16;97160.56;29395;226;63009;-57
2023/01/01 01:23:09;;;;;;;0.50;0.50;;;;;;;12.00;69.02;97167.91;29395;243;63005;-56
2023/01/01 01:23:41;;;;;;;0.50;0.50;;;;;;;11.95;69.13;97168.81;29395;204;63009;-56
2023/01/01 01:24:15;;;;;;;1.00;0.60;;;;;;;11.95;69.10;97168.00;29395;242;63005;-56
2023/01/01 01:24:47;;;;;;;0.50;0.50;;;;;;;11.96;69.38;97167.69;29395;221;63009;-56
2023/01/01 01:25:18;;;;;;;0.50;0.50;;;;;;;11.96;69.33;97169.59;29395;231;63004;-56
2023/01/01 01:25:49;;;;;;;0.50;0.50;;;;;;;11.94;69.00;97169.09;29394;236;64013;-56
2023/01/01 01:26:24;;;;;;;1.02;0.70;;;;;;;11.93;69.40;97171.00;29395;205;63004;-57
2023/01/01 01:26:55;;;;;;;0.50;0.50;;;;;;;11.94;69.41;97174.53;29394;262;64013;-56
2023/01/01 01:27:27;;;;;;;0.50;0.50;;;;;;;11.91;69.17;97158.81;29395;220;63004;-56
2023/01/01 01:27:58;;;;;;;0.50;0.50;;;;;;;11.90;69.05;97168.06;29395;210;63008;-57
2023/01/01 01:28:29;;;;;;;0.60;0.60;;;;;;;11.87;69.39;97164.03;29395;301;63005;-56
2023/01/01 01:29:02;;;;;;;0.50;0.50;;;;;;;11.85;69.44;97163.50;29395;222;63009;-56
2023/01/01 01:29:36;;;;;;;0.50;0.50;;;;;;;11.87;69.11;97163.22;29394;203;64009;-56
2023/01/01 01:30:09;;;;;;;0.50;0.50;;;;;;;11.84;69.25;97170.03;29395;254;63009;-55
2023/01/01 01:30:40;;;;;;;0.50;0.50;;;;;;;11.81;69.56;97170.63;29395;224;63009;-56
2023/01/01 01:31:12;;;;;;;0.50;0.50;;;;;;;11.79;69.68;97172.03;29395;202;63009;-56
2023/01/01 01:31:44;;;;;;;0.50;0.50;;;;;;;11.72;70.18;97173.19;29394;208;64009;-55
2023/01/01 01:32:16;;;;;;;0.50;0.50;;;;;;;11.70;70.34;97169.94;29395;211;63009;-56
2023/01/01 01:32:47;;;;;;;0.50;0.50;;;;;;;11.68;70.31;97174.06;29395;217;63004;-56
2023/01/01 01:33:18;;;;;;;0.50;0.50;;;;;;;11.66;70.39;97178.97;29395;254;63009;-56
2023/01/01 01:33:50;;;;;;;0.88;0.88;;;;;;;11.66;70.39;97173.53;29395;223;63004;-57
2023/01/01 01:34:22;;;;;;;0.50;0.50;;;;;;;11.69;70.40;97172.97;29395;225;63009;-56
2023/01/01 01:34:54;;;;;;;0.50;0.50;;;;;;;11.73;70.39;97171.28;29395;238;63004;-56
2023/01/01 01:35:25;;;;;;;0.50;0.50;;;;;;;11.70;70.08;97169.94;29394;242;64006;-56
2023/01/01 01:35:56;;;;;;;0.50;0.50;;;;;;;11.68;70.52;97172.16;29395;237;63005;-56
2023/01/01 01:36:28;;;;;;;0.60;0.60;;;;;;;11.71;70.22;97174.28;29395;246;63009;-56
2023/01/01 01:37:00;;;;;;;0.50;0.50;;;;;;;11.73;70.18;97171.28;29395;235;63005;-56
2023/01/01 01:37:31;;;;;;;0.50;0.50;;;;;;;11.77;69.90;97169.62;29395;233;63009;-56
2023/01/01 01:38:02;;;;;;;0.50;0.50;;;;;;;11.79;69.81;97169.31;29395;199;63005;-56
2023/01/01 01:38:35;;;;;;;0.50;0.50;;;;;;;11.77;69.81;97174.25;29394;219;64013;-56
2023/01/01 01:39:10;;;;;;;0.50;0.50;;;;;;;11.75;70.13;97175.31;29395;256;63005;-56
2023/01/01 01:39:42;;;;;;;0.50;0.50;;;;;;;11.79;69.85;97170.12;29395;253;63009;-56
2023/01/01 01:40:16;;;;;;;0.73;0.73;;;;;;;11.78;70.00;97165.81;29395;229;63004;-56
2023/01/01 01:40:48;;;;;;;0.45;0.45;;;;;;;11.74;69.90;97170.19;29395;256;63009;-56
2023/01/01 01:41:22;;;;;;;0.50;0.50;;;;;;;11.73;70.01;97168.56;29395;209;63004;-56
2023/01/01 01:41:53;;;;;;;1.12;1.12;;;;;;;11.70;70.09;97164.50;29395;211;63009;-56
2023/01/01 01:42:25;;;;;;;0.50;0.50;;;;;;;11.77;69.58;97166.91;29395;222;63006;-55
2023/01/01 01:42:56;;;;;;;0.50;0.50;;;;;;;11.80;69.76;97158.13;29394;255;64013;-56
2023/01/01 01:43:52;;;;;;;1.50;1.50;;;;;;;11.78;69.81;97165.81;29395;222;63004;-57
2023/01/01 01:44:52;;;;;;;0.50;0.50;;;;;;;11.79;69.97;97167.38;29395;222;63017;-58
2023/01/01 01:45:24;;;;;;;0.50;0.50;;;;;;;11.76;69.92;97176.13;29395;207;63009;-56
2023/01/01 01:45:58;;;;;;;0.50;0.50;;;;;;;11.75;69.63;97166.34;29395;196;63005;-56
2023/01/01 01:46:44;;;;;;;4.00;3.90;;;;;;;11.81;69.72;97176.06;29395;213;63009;-56
2023/01/01 01:47:38;;;;;;;0.50;0.50;;;;;;;11.86;69.25;97167.84;29395;239;63008;-56
2023/01/01 01:48:10;;;;;;;0.60;0.60;;;;;;;11.87;69.41;97155.88;29394;260;64013;-56
2023/01/01 01:48:47;;;;;;;0.60;0.60;;;;;;;11.88;69.36;97164.81;29395;242;63004;-57
2023/01/01 01:49:29;;;;;;;0.70;0.70;;;;;;;11.90;69.39;97168.88;29395;223;63009;-58
2023/01/01 01:50:10;;;;;;;0.60;0.60;;;;;;;11.91;69.23;97164.25;29395;223;63004;-57
2023/01/01 01:50:45;;;;;;;1.30;1.30;;;;;;;11.93;69.13;97171.00;29416;224;64013;-56
2023/01/01 01:51:31;;;;;;;0.65;0.65;;;;;;;11.93;68.88;97173.72;29395;245;63005;-56
2023/01/01 01:52:03;;;;;;;0.50;0.50;;;;;;;11.89;69.08;97172.69;29395;196;63009;-56
2023/01/01 01:52:39;;;;;;;0.50;0.50;;;;;;;11.86;69.05;97167.84;29395;270;63005;-57
2023/01/01 01:53:18;;;;;;;0.70;0.70;;;;;;;11.87;69.39;97177.62;29395;232;63009;-55
2023/01/01 01:53:55;;;;;;;0.52;0.52;;;;;;;11.87;69.05;97172.19;29438;233;64009;-57
2023/01/01 01:54:28;;;;;;;0.77;0.77;;;;;;;11.91;69.01;97172.41;29373;208;63009;-56
2023/01/01 01:55:01;;;;;;;0.50;0.50;;;;;;;11.87;69.41;97177.62;29395;229;63005;-56
2023/01/01 01:55:39;;;;;;;0.62;0.62;;;;;;;11.83;69.47;97183.94;29395;209;63009;-55
2023/01/01 01:56:16;;;;;;;1.40;1.30;;;;;;;11.80;69.78;97174.44;29394;223;64009;-57
2023/01/01 01:56:56;;;;;;;6.37;5.87;;;;;;;11.84;69.66;97175.47;29395;207;63009;-56
2023/01/01 01:57:28;;;;;;;0.50;0.50;;;;;;;11.85;69.36;97181.72;29395;308;63004;-55
2023/01/01 01:58:02;;;;;;;0.80;0.80;;;;;;;11.81;69.45;97170.63;29395;196;63008;-56
2023/01/01 01:58:34;;;;;;;0.50;0.50;;;;;;;11.78;69.59;97168.53;29395;201;63004;-55
2023/01/01 01:59:06;;;;;;;0.70;0.70;;;;;;;11.83;69.34;97179.31;29395;197;63009;-55
2023/01/01 01:59:41;;;;;;;0.98;0.90;;;;;;;11.79;69.38;97183.69;29395;262;63005;-56
2023/01/01 02:00:14;;;;;;;0.50;0.50;;;;;;;11.73;69.78;97174.81;29395;254;63009;-56
2023/01/01 02:00:46;;;;;;;0.50;0.50;;;;;;;11.71;69.87;97176.19;29395;220;63000;-55
2023/01/01 02:01:18;;;;;;;0.50;0.50;;;;;;;11.70;69.95;97175.38;29394;214;64013;-56
2023/01/01 02:01:49;;;;;;;0.50;0.50;;;;;;;11.69;69.81;97172.97;29395;202;63005;-55
2023/01/01 02:02:40;;;;;;;0.50;0.50;;;;;;;11.70;69.84;97174.56;29394;200;64013;-57
2023/01/01 02:03:34;;;;;;;0.50;0.50;;;;;;;11.68;69.90;97174.06;29417;249;63004;-55
2023/01/01 02:04:09;;;;;;;0.50;0.50;;;;;;;11.67;70.02;97169.72;29395;256;63009;-58
2023/01/01 02:04:42;;;;;;;0.77;0.75;;;;;;;11.70;69.91;97171.88;29395;262;63004;-56
2023/01/01 02:05:14;;;;;;;0.45;0.45;;;;;;;11.75;69.71;97164.44;29395;335;63008;-56
2023/01/01 02:05:46;;;;;;;1.42;0.80;;;;;;;11.80;69.41;97179.06;29395;251;63004;-56
2023/01/01 02:06:19;;;;;;;2.25;2.05;;;;;;;11.87;69.34;97168.66;29395;237;63009;-56
2023/01/01 02:06:53;;;;;;;0.50;0.50;;;;;;;11.89;69.16;97171.88;29395;253;63012;-56
2023/01/01 02:07:27;;;;;;;0.50;0.50;;;;;;;11.87;69.01;97169.47;29394;242;64013;-57
2023/01/01 02:07:59;;;;;;;0.50;0.50;;;;;;;11.92;68.90;97176.72;29395;241;63005;-56
2023/01/01 02:08:33;;;;;;;0.50;0.50;;;;;;;11.88;69.22;97168.34;29394;238;64009;-56
2023/01/01 02:09:06;;;;;;;0.50;0.50;;;;;;;11.85;69.24;97179.00;29395;203;63005;-56
2023/01/01 02:09:37;;;;;;;0.50;0.50;;;;;;;11.81;69.29;97178.78;29395;242;63009;-56
2023/01/01 02:10:09;;;;;;;0.50;0.50;;;;;;;11.81;69.22;97176.06;29395;217;63004;-57
2023/01/01 02:10:41;;;;;;;0.50;0.50;;;;;;;11.81;69.52;97173.34;29395;196;63009;-56
2023/01/01 02:11:12;;;;;;;0.50;0.50;;;;;;;11.83;69.57;97179.31;29394;220;64009;-56
2023/01/01 02:11:44;;;;;;;0.50;0.50;;;;;;;11.82;69.55;97180.41;29395;214;63009;-56
2023/01/01 02:12:16;;;;;;;0.50;0.50;;;;;;;11.83;69.55;97179.31;29395;276;63004;-56
2023/01/01 02:12:47;;;;;;;0.57;0.57;;;;;;;11.84;69.09;97177.38;29395;264;63008;-56
2023/01/01 02:13:19;;;;;;;0.50;0.50;;;;;;;11.87;69.00;97172.19;29395;197;63005;-56
2023/01/01 02:13:53;;;;;;;44.15;41.50;;;;;;;11.87;69.24;97166.75;29385;270;65009;-55
2023/01/01 02:14:24;;;;;;;0.50;0.50;;;;;;;11.86;68.94;97173.28;29395;283;63005;-55
2023/01/01 02:14:59;;;;;;;0.50;0.50;;;;;;;11.89;69.42;97167.25;29395;205;63009;-55
2023/01/01 02:15:52;;;;;;;0.50;0.50;;;;;;;11.89;69.33;97172.69;29394;199;64009;-56
2023/01/01 02:16:42;;;;;;;0.50;0.50;;;;;;;11.87;69.29;97168.66;29394;222;64013;-57
2023/01/01 02:17:27;;;;;;;0.50;0.50;;;;;;;11.89;68.87;97166.44;29395;264;63009;-56
2023/01/01 02:18:09;;;;;;;0.65;0.65;;;;;;;11.87;69.31;97177.62;29395;236;63009;-55
2023/01/01 02:19:01;;;;;;;0.60;0.60;;;;;;;11.88;68.96;97171.06;29395;235;63010;-55
2023/01/01 02:20:20;;;;;;;0.50;0.50;;;;;;;11.87;69.20;97172.19;29416;242;64013;-56
2023/01/01 02:21:03;;;;;;;0.50;0.50;;;;;;;11.90;68.99;97174.31;29395;274;63009;-56
2023/01/01 02:22:14;;;;;;;0.50;0.50;;;;;;;11.87;69.31;97172.19;29395;199;63005;-55
2023/01/01 02:23:25;;;;;;;0.50;0.50;;;;;;;11.83;69.44;97184.75;29395;197;63009;-55
2023/01/01 02:24:41;;;;;;;0.50;0.50;;;;;;;11.83;69.11;97179.31;29394;232;64009;-56
2023/01/01 02:26:18;;;;;;;0.50;0.50;;;;;;;11.81;69.73;97176.06;29395;303;63023;-64
2023/01/01 02:27:24;;;;;;;0.50;0.50;;;;;;;11.79;69.59;97183.69;29394;376;64009;-56
2023/01/01 02:28:32;;;;;;;0.50;0.50;;;;;;;11.73;69.66;97182.16;29395;228;63008;-55
2023/01/01 02:29:45;;;;;;;0.50;0.50;;;;;;;11.75;69.71;97183.47;29395;245;63017;-56
2023/01/01 02:30:18;;;;;;;0.50;0.50;;;;;;;11.79;69.32;97180.97;29394;217;64013;-56
2023/01/01 02:30:55;;;;;;;0.50;0.50;;;;;;;11.79;69.34;97189.13;29395;223;63005;-55
2023/01/01 02:31:33;;;;;;;0.50;0.50;;;;;;;11.78;69.27;97187.56;29395;300;63009;-56
2023/01/01 02:32:57;;;;;;;0.50;0.50;;;;;;;11.78;69.73;97182.13;29395;251;63005;-55
2023/01/01 02:33:30;;;;;;;0.50;0.50;;;;;;;11.76;69.69;97184.28;29395;211;63009;-56
2023/01/01 02:34:06;;;;;;;0.50;0.50;;;;;;;11.81;69.19;97186.13;29395;303;63004;-55
2023/01/01 02:34:47;;;;;;;0.60;0.60;;;;;;;11.84;69.60;97175.47;29395;211;63009;-65
2023/01/01 02:35:34;;;;;;;;;;;;;;;11.89;69.13;97180.84;29996;983;6004;-56
2023/01/01 02:36:07;;;;;;;0.50;0.50;;;;;;;11.85;69.02;97177.09;29400;248;63001;-55
2023/01/01 02:36:47;;;;;;;1.30;1.20;;;;;;;11.87;69.31;97177.62;29395;418;63013;-56
2023/01/01 02:37:21;;;;;;;0.50;0.50;;;;;;;11.87;68.89;97180.34;29395;196;63010;-59
2023/01/01 02:37:59;;;;;;;0.50;0.50;;;;;;;11.87;69.18;97171.38;29395;470;63005;-56
2023/01/01 02:38:36;;;;;;;0.50;0.50;;;;;;;11.88;69.13;97170.25;29395;249;63000;-55
2023/01/01 02:39:09;;;;;;;0.50;0.50;;;;;;;11.87;69.38;97177.62;29395;214;63005;-57
2023/01/01 02:39:57;;;;;;;1.48;1.45;;;;;;;11.81;69.30;97173.34;29395;197;63000;-55
2023/01/01 02:40:29;;;;;;;0.50;0.50;;;;;;;11.77;69.42;97174.25;29394;381;64013;-55
2023/01/01 02:41:09;;;;;;;0.50;0.50;;;;;;;11.74;69.62;97175.63;29395;252;63005;-56
2023/01/01 02:41:44;;;;;;;0.50;0.50;;;;;;;11.78;69.36;97175.88;29394;453;64013;-56
2023/01/01 02:42:16;;;;;;;0.62;0.62;;;;;;;11.80;69.40;97165.47;29395;198;63004;-56
2023/01/01 02:42:48;;;;;;;0.50;0.50;;;;;;;11.78;69.26;97167.72;29395;196;63008;-56
2023/01/01 02:43:20;;;;;;;0.75;0.75;;;;;;;11.77;69.22;97174.25;29395;228;63005;-56
2023/01/01 02:43:52;;;;;;;0.50;0.50;;;;;;;11.73;69.55;97174.00;29395;200;63009;-56
2023/01/01 02:44:27;;;;;;;0.50;0.50;;;;;;;11.72;69.24;97169.66;29395;208;63005;-57
2023/01/01 02:44:59;;;;;;;0.50;0.50;;;;;;;11.75;69.55;97169.06;29395;244;63009;-55
2023/01/01 02:45:31;;;;;;;0.50;0.50;;;;;;;11.74;69.32;97171.00;29395;389;63005;-55
2023/01/01 02:46:08;;;;;;;0.50;0.50;;;;;;;11.76;69.42;97173.41;29395;228;63009;-56
2023/01/01 02:46:39;;;;;;;0.57;0.57;;;;;;;11.81;69.13;97176.06;29394;386;64009;-56
2023/01/01 02:47:14;;;;;;;0.50;0.50;;;;;;;11.81;69.13;97173.34;29395;260;63009;-55
2023/01/01 02:47:46;;;;;;;0.50;0.50;;;;;;;11.85;68.76;97166.22;29395;210;63004;-56
2023/01/01 02:48:42;;;;;;;1.02;1.02;;;;;;;11.81;69.31;97170.63;29395;239;63009;-53